Time;durP1;ratioP1;P1;durP2;ratioP2;P2;SDS_P1;SDS_P2;PMS_P1;PMS_P2;Temp;Humidity;BMP_temperature;BMP_pressure;BME280_temperature;BME280_humidity;BME280_pressure;Samples;Min_cycle;Max_cycle;Signal;HPM_P1;HPM_P2
2023/12/29 00:01:59;;;;;;;1.17;0.40;;;10.80;99.90;;;;;;5055139;28;20025;-55
2023/12/29 00:04:27;;;;;;;4.10;0.80;;;10.90;99.90;;;;;;5054981;28;20370;-54
2023/12/29 00:06:53;;;;;;;6.07;1.00;;;10.90;99.90;;;;;;5054804;28;20029;-55
2023/12/29 00:09:21;;;;;;;4.57;0.63;;;10.90;99.90;;;;;;5054499;28;20024;-54
2023/12/29 00:11:49;;;;;;;3.53;0.60;;;10.90;99.90;;;;;;5054882;28;20021;-52
2023/12/29 00:14:14;;;;;;;4.10;0.97;;;10.90;99.90;;;;;;5054761;28;20127;-55
2023/12/29 00:16:40;;;;;;;2.83;1.10;;;10.90;99.90;;;;;;5054783;28;20492;-53
2023/12/29 00:19:05;;;;;;;2.03;0.63;;;10.90;99.90;;;;;;5054540;28;20398;-53
2023/12/29 00:21:31;;;;;;;4.27;0.63;;;10.90;99.90;;;;;;5054662;28;20485;-54
2023/12/29 00:23:57;;;;;;;1.80;0.60;;;10.90;99.90;;;;;;5054528;28;20029;-52
2023/12/29 00:26:23;;;;;;;2.47;0.60;;;11.00;99.90;;;;;;5054618;28;20032;-52
2023/12/29 00:28:55;;;;;;;3.67;0.83;;;11.00;99.90;;;;;;5037431;28;20390;-53
2023/12/29 00:31:21;;;;;;;2.23;0.70;;;11.00;99.90;;;;;;5036661;28;20029;-54
2023/12/29 00:33:46;;;;;;;2.50;0.80;;;11.00;99.90;;;;;;5036581;28;20036;-54
2023/12/29 00:36:19;;;;;;;6.77;1.30;;;11.00;99.90;;;;;;5054440;28;20424;-53
2023/12/29 00:38:45;;;;;;;4.43;1.07;;;11.00;99.90;;;;;;5035701;28;20069;-54
2023/12/29 00:41:11;;;;;;;3.13;0.57;;;11.00;99.90;;;;;;5054274;28;20110;-54
2023/12/29 00:43:37;;;;;;;3.10;0.70;;;11.00;99.90;;;;;;5036376;28;20100;-53
2023/12/29 00:46:05;;;;;;;2.90;0.80;;;11.00;99.90;;;;;;5054279;28;20029;-55
2023/12/29 00:48:32;;;;;;;6.65;0.88;;;11.00;99.90;;;;;;5036017;28;20087;-55
2023/12/29 00:50:57;;;;;;;4.10;1.43;;;11.00;99.90;;;;;;5036176;28;20139;-54
2023/12/29 00:53:23;;;;;;;1.90;0.77;;;11.00;99.90;;;;;;5054032;28;20108;-55
2023/12/29 00:55:49;;;;;;;4.63;1.00;;;11.00;99.90;;;;;;5053962;28;20040;-54
2023/12/29 00:58:14;;;;;;;5.83;0.73;;;11.00;99.90;;;;;;5035958;28;20028;-55
2023/12/29 01:00:40;;;;;;;2.60;0.80;;;11.00;99.90;;;;;;5036024;28;20515;-55
2023/12/29 01:03:05;;;;;;;3.27;0.60;;;11.00;99.90;;;;;;5053738;28;20056;-53
2023/12/29 01:05:31;;;;;;;6.73;1.13;;;11.00;99.90;;;;;;5036105;28;20485;-53
2023/12/29 01:07:57;;;;;;;4.83;1.10;;;11.10;99.90;;;;;;5053794;28;20075;-54
2023/12/29 01:10:22;;;;;;;2.57;0.63;;;11.10;99.90;;;;;;5053586;28;20374;-53
2023/12/29 01:12:48;;;;;;;3.27;0.70;;;11.10;99.90;;;;;;5035845;28;20067;-53
2023/12/29 01:15:14;;;;;;;4.63;0.80;;;11.10;99.90;;;;;;5053784;28;20056;-54
2023/12/29 01:17:40;;;;;;;2.60;0.80;;;11.10;99.90;;;;;;5053678;28;20055;-54
2023/12/29 01:20:06;;;;;;;2.73;0.77;;;11.20;99.90;;;;;;5035582;28;20463;-54
2023/12/29 01:22:31;;;;;;;3.50;0.77;;;11.10;99.90;;;;;;5035592;28;20493;-53
2023/12/29 01:24:59;;;;;;;3.03;0.70;;;11.10;99.90;;;;;;5035678;28;20032;-54
2023/12/29 01:27:25;;;;;;;5.23;0.90;;;11.10;99.90;;;;;;5053356;28;20040;-55
2023/12/29 01:29:52;;;;;;;8.30;1.33;;;11.00;99.90;;;;;;5053241;28;20028;-54
2023/12/29 01:32:18;;;;;;;6.90;1.40;;;11.10;99.90;;;;;;5035395;28;20036;-54
2023/12/29 01:34:44;;;;;;;4.43;0.83;;;11.10;99.90;;;;;;5035420;28;20032;-55
2023/12/29 01:37:10;;;;;;;2.23;0.77;;;11.00;99.90;;;;;;5053358;28;20044;-53
2023/12/29 01:39:36;;;;;;;4.40;0.73;;;11.00;99.90;;;;;;5035069;28;20025;-51
2023/12/29 01:42:02;;;;;;;3.03;0.60;;;11.00;99.90;;;;;;5035192;28;20516;-53
2023/12/29 01:44:28;;;;;;;5.03;1.07;;;11.00;99.90;;;;;;5035126;28;20107;-52
2023/12/29 01:46:58;;;;;;;3.67;1.17;;;11.00;99.90;;;;;;5035167;28;20116;-53
2023/12/29 01:49:24;;;;;;;4.97;1.30;;;10.90;99.90;;;;;;5033996;28;20033;-54
2023/12/29 01:51:55;;;;;;;9.90;1.90;;;10.90;99.90;;;;;;5034967;28;20166;-54
2023/12/29 01:54:22;;;;;;;6.47;1.13;;;11.00;99.90;;;;;;5034888;28;20083;-53
2023/12/29 01:56:55;;;;;;;7.93;1.23;;;10.90;99.90;;;;;;5035024;28;20048;-51
2023/12/29 01:59:21;;;;;;;6.27;1.30;;;10.90;99.90;;;;;;5034629;28;20052;-51
2023/12/29 02:01:47;;;;;;;8.47;1.83;;;10.90;99.90;;;;;;5034844;28;20477;-53
2023/12/29 02:04:14;;;;;;;4.93;1.43;;;10.90;99.90;;;;;;5034835;28;20113;-53
2023/12/29 02:06:40;;;;;;;3.23;1.40;;;10.80;99.90;;;;;;5052630;28;20425;-54
2023/12/29 02:09:06;;;;;;;7.17;1.70;;;10.70;99.90;;;;;;5034548;28;20029;-54
2023/12/29 02:11:31;;;;;;;7.40;1.50;;;10.60;99.90;;;;;;5034682;28;20079;-51
2023/12/29 02:14:02;;;;;;;6.33;1.30;;;10.50;99.90;;;;;;5052641;28;20057;-53
2023/12/29 02:16:40;;;;;;;5.83;1.33;;;10.40;99.90;;;;;;5034767;28;20036;-54
2023/12/29 02:19:37;;;;;;;3.15;1.00;;;10.40;99.90;;;;;;5034410;28;20036;-53
2023/12/29 02:22:03;;;;;;;4.00;1.10;;;10.30;99.90;;;;;;5052510;28;20091;-53
2023/12/29 02:24:29;;;;;;;4.30;1.43;;;10.20;99.90;;;;;;5034428;28;20029;-53
2023/12/29 02:27:09;;;;;;;6.47;1.17;;;10.20;99.90;;;;;;5034313;28;20052;-54
2023/12/29 02:29:36;;;;;;;5.87;1.30;;;10.20;99.90;;;;;;5052070;28;20039;-54
2023/12/29 02:32:06;;;;;;;4.57;1.00;;;10.20;99.90;;;;;;5034381;28;20033;-53
2023/12/29 02:34:33;;;;;;;7.97;1.67;;;10.20;99.90;;;;;;5034319;28;20038;-54
2023/12/29 02:36:59;;;;;;;3.83;1.20;;;10.20;99.90;;;;;;5052242;28;20103;-50
2023/12/29 02:39:25;;;;;;;12.37;1.47;;;10.20;99.90;;;;;;5033926;28;20041;-54
2023/12/29 02:41:51;;;;;;;7.30;1.57;;;10.10;99.90;;;;;;5052165;28;20044;-55
2023/12/29 02:44:16;;;;;;;5.47;1.77;;;10.10;99.90;;;;;;5034139;28;20044;-54
2023/12/29 02:46:42;;;;;;;8.10;1.40;;;10.10;99.90;;;;;;5017962;28;20033;-52
2023/12/29 02:49:12;;;;;;;5.83;1.30;;;10.10;99.90;;;;;;5051812;28;20029;-53
2023/12/29 02:51:38;;;;;;;3.73;1.40;;;10.20;99.90;;;;;;5034091;28;20148;-52
2023/12/29 02:54:05;;;;;;;3.60;1.20;;;10.10;99.90;;;;;;5051802;28;20025;-54
2023/12/29 02:56:31;;;;;;;4.73;1.50;;;10.10;99.90;;;;;;5034074;28;20040;-55
2023/12/29 02:58:57;;;;;;;7.67;1.50;;;10.10;99.90;;;;;;5051669;28;20021;-54
2023/12/29 03:01:22;;;;;;;4.27;1.20;;;10.20;99.90;;;;;;5033784;28;20090;-54
2023/12/29 03:03:48;;;;;;;6.57;1.23;;;10.20;99.90;;;;;;5051747;28;20112;-55
2023/12/29 03:06:13;;;;;;;6.30;1.17;;;10.20;99.90;;;;;;5051934;28;20083;-54
2023/12/29 03:08:39;;;;;;;4.57;1.17;;;10.20;99.90;;;;;;5051372;28;20422;-52
2023/12/29 03:11:05;;;;;;;3.20;1.33;;;10.30;99.90;;;;;;5033837;28;20025;-52
2023/12/29 03:13:31;;;;;;;9.70;1.53;;;10.20;99.90;;;;;;5033852;28;20033;-54
2023/12/29 03:15:56;;;;;;;8.00;1.57;;;10.30;99.90;;;;;;5033874;28;20057;-50
2023/12/29 03:18:22;;;;;;;3.60;1.40;;;10.30;99.90;;;;;;5033682;28;20470;-54
2023/12/29 03:20:47;;;;;;;9.23;1.90;;;10.30;99.90;;;;;;5051622;28;20067;-53
2023/12/29 03:23:13;;;;;;;7.53;1.77;;;10.30;99.90;;;;;;5051545;28;20033;-55
2023/12/29 03:25:38;;;;;;;5.60;1.87;;;10.30;99.90;;;;;;5033966;28;20090;-51
2023/12/29 03:28:04;;;;;;;7.73;1.60;;;10.40;99.90;;;;;;5033456;28;20052;-53
2023/12/29 03:30:30;;;;;;;6.23;1.37;;;10.30;99.90;;;;;;5033635;28;20486;-54
2023/12/29 03:32:55;;;;;;;9.03;2.67;;;10.30;99.90;;;;;;5051865;28;20386;-55
2023/12/29 03:35:21;;;;;;;8.47;1.50;;;10.40;99.90;;;;;;5051579;28;20055;-54
2023/12/29 03:37:47;;;;;;;6.47;1.53;;;10.40;99.90;;;;;;5033517;28;20482;-54
2023/12/29 03:40:13;;;;;;;7.27;2.50;;;10.40;99.90;;;;;;5051269;28;20422;-51
2023/12/29 03:42:40;;;;;;;7.50;1.90;;;10.40;99.90;;;;;;5051318;28;20170;-55
2023/12/29 03:45:06;;;;;;;4.50;1.27;;;10.40;99.90;;;;;;5033605;28;20509;-54
2023/12/29 03:47:31;;;;;;;4.17;1.10;;;10.40;99.90;;;;;;5033434;28;20037;-54
2023/12/29 03:49:57;;;;;;;5.30;1.13;;;10.50;99.90;;;;;;5033472;28;20478;-52
2023/12/29 03:52:23;;;;;;;3.50;1.20;;;10.50;99.90;;;;;;5033384;28;20033;-53
2023/12/29 03:54:49;;;;;;;7.00;1.43;;;10.50;99.90;;;;;;5033518;28;20044;-53
2023/12/29 03:57:14;;;;;;;4.57;1.10;;;10.50;99.90;;;;;;5033523;28;20029;-53
2023/12/29 03:59:40;;;;;;;3.80;1.03;;;10.50;99.90;;;;;;5033164;28;20055;-53
2023/12/29 04:02:06;;;;;;;4.73;1.10;;;10.50;99.90;;;;;;5051178;28;20040;-55
2023/12/29 04:04:32;;;;;;;3.50;1.03;;;10.50;99.90;;;;;;5033409;28;20036;-54
2023/12/29 04:06:57;;;;;;;8.57;1.07;;;10.50;99.90;;;;;;5033259;28;20490;-54
2023/12/29 04:09:23;;;;;;;4.97;1.30;;;10.50;99.90;;;;;;5033096;28;20057;-54
2023/12/29 04:11:49;;;;;;;3.87;0.80;;;10.50;99.90;;;;;;5033295;28;20029;-54
2023/12/29 04:14:16;;;;;;;6.83;1.40;;;10.50;99.90;;;;;;5053784;28;20100;-54
2023/12/29 04:16:43;;;;;;;7.27;0.90;;;10.50;99.90;;;;;;5054887;28;20080;-54
2023/12/29 04:19:08;;;;;;;6.77;1.03;;;10.50;99.90;;;;;;5036692;28;20060;-54
2023/12/29 04:21:34;;;;;;;7.83;1.13;;;10.60;99.90;;;;;;5036736;28;20052;-55
2023/12/29 04:24:00;;;;;;;3.40;0.77;;;10.60;99.90;;;;;;5054709;28;20442;-54
2023/12/29 04:26:25;;;;;;;4.33;0.90;;;10.70;99.90;;;;;;5036836;28;20028;-54
2023/12/29 04:28:51;;;;;;;4.63;0.80;;;10.70;99.90;;;;;;5036637;28;20079;-54
2023/12/29 04:31:17;;;;;;;4.13;0.60;;;10.70;99.90;;;;;;5054639;28;20205;-53
2023/12/29 04:33:43;;;;;;;2.47;0.70;;;10.70;99.90;;;;;;5036627;28;20025;-53
2023/12/29 04:36:08;;;;;;;5.73;1.00;;;10.80;99.90;;;;;;5054449;28;20104;-53
2023/12/29 04:38:34;;;;;;;4.77;0.90;;;10.80;99.90;;;;;;5054169;28;20029;-54
2023/12/29 04:40:59;;;;;;;2.03;0.60;;;10.70;99.90;;;;;;5036834;28;20390;-54
2023/12/29 04:43:26;;;;;;;2.60;0.70;;;10.70;99.90;;;;;;5036655;28;20167;-54
2023/12/29 04:45:51;;;;;;;8.13;2.30;;;10.70;99.90;;;;;;5054266;28;20123;-54
2023/12/29 04:48:17;;;;;;;5.80;1.00;;;10.70;99.90;;;;;;5054001;28;20044;-54
2023/12/29 04:50:43;;;;;;;7.33;1.53;;;10.70;99.90;;;;;;5053983;28;20029;-53
2023/12/29 04:53:09;;;;;;;5.67;1.13;;;10.60;99.90;;;;;;5054062;28;20024;-55
2023/12/29 04:55:34;;;;;;;5.17;1.33;;;10.60;99.90;;;;;;5054225;28;20103;-55
2023/12/29 04:58:00;;;;;;;2.37;1.13;;;10.50;99.90;;;;;;5054064;28;20033;-54
2023/12/29 05:00:25;;;;;;;5.27;1.23;;;10.50;99.90;;;;;;5054005;28;20028;-54
2023/12/29 05:02:51;;;;;;;5.47;0.70;;;10.50;99.90;;;;;;5053884;28;20390;-54
2023/12/29 05:05:16;;;;;;;2.73;0.90;;;10.50;99.90;;;;;;5053852;28;20031;-55
2023/12/29 05:07:42;;;;;;;10.10;1.63;;;10.50;99.90;;;;;;5053736;28;20473;-55
2023/12/29 05:10:08;;;;;;;5.17;1.10;;;10.50;99.90;;;;;;5053857;28;20071;-53
2023/12/29 05:12:34;;;;;;;3.87;0.80;;;10.50;99.90;;;;;;5053762;28;20053;-54
2023/12/29 05:14:59;;;;;;;3.47;0.77;;;10.50;99.90;;;;;;5053720;28;20389;-54
2023/12/29 05:17:25;;;;;;;4.43;0.80;;;10.50;99.90;;;;;;5053693;28;20035;-55
2023/12/29 05:19:50;;;;;;;4.53;0.73;;;10.50;99.90;;;;;;5053335;28;20470;-55
2023/12/29 05:22:17;;;;;;;8.00;1.00;;;10.50;99.90;;;;;;5053547;28;20533;-52
2023/12/29 05:24:43;;;;;;;7.77;1.17;;;10.50;99.90;;;;;;5053442;28;20123;-53
2023/12/29 05:27:09;;;;;;;6.53;0.83;;;10.50;99.90;;;;;;5053542;28;20059;-53
2023/12/29 05:29:34;;;;;;;3.87;0.80;;;10.60;99.90;;;;;;5035339;28;20036;-53
2023/12/29 05:32:02;;;;;;;4.43;1.10;;;10.60;99.90;;;;;;5053686;28;20021;-54
2023/12/29 05:34:28;;;;;;;5.90;1.10;;;10.50;99.90;;;;;;5053325;28;20032;-53
2023/12/29 05:36:53;;;;;;;7.33;1.00;;;10.60;99.90;;;;;;5053324;28;20036;-54
2023/12/29 05:39:19;;;;;;;5.20;1.07;;;10.60;99.90;;;;;;5053272;28;20025;-54
2023/12/29 05:41:44;;;;;;;5.87;0.97;;;10.60;99.90;;;;;;5053158;28;20025;-55
2023/12/29 05:44:10;;;;;;;5.07;1.57;;;10.60;99.90;;;;;;5053120;28;20024;-54
2023/12/29 05:46:36;;;;;;;2.70;0.80;;;10.70;99.90;;;;;;5053201;28;20056;-52
2023/12/29 05:49:01;;;;;;;12.23;1.00;;;10.70;99.90;;;;;;5052672;28;20025;-54
2023/12/29 05:51:27;;;;;;;5.67;0.60;;;10.70;99.90;;;;;;5053035;28;20104;-55
2023/12/29 05:53:53;;;;;;;3.13;0.73;;;10.70;99.90;;;;;;5053198;28;20543;-55
2023/12/29 05:56:18;;;;;;;4.40;0.80;;;10.70;99.90;;;;;;5052963;28;20025;-55
2023/12/29 05:58:44;;;;;;;4.80;0.80;;;10.60;99.90;;;;;;5052729;28;20473;-53
2023/12/29 06:01:10;;;;;;;14.83;1.60;;;10.70;99.90;;;;;;5052794;28;20037;-53
2023/12/29 06:03:36;;;;;;;5.80;1.07;;;10.70;99.90;;;;;;5052750;28;20147;-51
2023/12/29 06:06:02;;;;;;;4.23;0.80;;;10.70;99.90;;;;;;5052741;28;20490;-54
2023/12/29 06:08:27;;;;;;;3.43;0.70;;;10.70;99.90;;;;;;5052532;28;20029;-55
2023/12/29 06:10:53;;;;;;;4.63;0.90;;;10.70;99.90;;;;;;5052593;28;20553;-53
2023/12/29 06:13:18;;;;;;;4.13;1.07;;;10.60;99.90;;;;;;5052689;28;20056;-53
2023/12/29 06:15:44;;;;;;;5.13;1.20;;;10.60;99.90;;;;;;5052636;28;20021;-55
2023/12/29 06:18:10;;;;;;;5.97;0.97;;;10.50;99.90;;;;;;5052313;28;20474;-54
2023/12/29 06:20:35;;;;;;;5.10;0.93;;;10.60;99.90;;;;;;5052392;28;20029;-52
2023/12/29 06:23:01;;;;;;;6.77;0.73;;;10.50;99.90;;;;;;5052381;28;20033;-54
2023/12/29 06:25:26;;;;;;;5.40;0.80;;;10.60;99.90;;;;;;5052436;28;20035;-54
2023/12/29 06:27:53;;;;;;;6.60;1.00;;;10.60;99.90;;;;;;5052219;28;20470;-53
2023/12/29 06:30:18;;;;;;;4.77;1.30;;;10.50;99.90;;;;;;5052105;28;20033;-55
2023/12/29 06:32:44;;;;;;;3.17;1.57;;;10.50;99.90;;;;;;5052124;28;20040;-50
2023/12/29 06:35:10;;;;;;;6.50;1.60;;;10.60;99.90;;;;;;5052162;28;20112;-55
2023/12/29 06:37:38;;;;;;;5.60;1.50;;;10.60;99.90;;;;;;5051885;28;20071;-54
2023/12/29 06:40:04;;;;;;;7.93;1.73;;;10.50;99.90;;;;;;5052217;28;20400;-50
2023/12/29 06:42:30;;;;;;;5.37;1.87;;;10.60;99.90;;;;;;5051994;28;20072;-55
2023/12/29 06:44:55;;;;;;;6.07;1.80;;;10.60;99.90;;;;;;5034341;28;20068;-54
2023/12/29 06:47:21;;;;;;;7.13;1.30;;;10.60;99.90;;;;;;5051947;28;20025;-55
2023/12/29 06:49:48;;;;;;;5.80;1.60;;;10.60;99.90;;;;;;5051772;28;20477;-55
2023/12/29 06:52:13;;;;;;;9.30;1.23;;;10.70;99.90;;;;;;5051984;28;20057;-54
2023/12/29 06:54:39;;;;;;;7.07;1.50;;;10.70;99.90;;;;;;5051959;28;20053;-53
2023/12/29 06:57:05;;;;;;;3.17;0.90;;;10.60;99.90;;;;;;5051945;28;20061;-53
2023/12/29 06:59:30;;;;;;;6.50;1.23;;;10.60;99.90;;;;;;5051686;28;20025;-55
2023/12/29 07:01:56;;;;;;;5.23;1.17;;;10.70;99.90;;;;;;5051742;28;20029;-49
2023/12/29 07:04:22;;;;;;;6.80;1.07;;;10.70;99.90;;;;;;5051906;28;20029;-52
2023/12/29 07:06:47;;;;;;;6.93;1.10;;;10.70;99.90;;;;;;5051849;28;20061;-50
2023/12/29 07:09:13;;;;;;;6.57;1.90;;;10.70;99.90;;;;;;5051550;28;20032;-52
2023/12/29 07:11:38;;;;;;;9.03;1.50;;;10.70;99.90;;;;;;5051804;28;20083;-54
2023/12/29 07:14:04;;;;;;;9.27;2.10;;;10.70;99.90;;;;;;5051737;28;20108;-53
2023/12/29 07:16:30;;;;;;;4.27;1.43;;;10.60;99.90;;;;;;5051820;28;20410;-52
2023/12/29 07:18:55;;;;;;;4.93;1.20;;;10.50;99.90;;;;;;5051441;28;20166;-54
2023/12/29 07:21:21;;;;;;;7.57;2.10;;;10.50;99.90;;;;;;5051727;28;20032;-54
2023/12/29 07:23:46;;;;;;;7.63;2.40;;;10.40;99.90;;;;;;5051688;28;20080;-53
2023/12/29 07:26:12;;;;;;;7.33;2.43;;;10.40;99.90;;;;;;5051760;28;20212;-55
2023/12/29 07:28:38;;;;;;;3.43;1.47;;;10.40;99.90;;;;;;5051319;28;20489;-54
2023/12/29 07:31:03;;;;;;;5.23;1.63;;;10.40;99.90;;;;;;5051694;28;20478;-55
2023/12/29 07:33:30;;;;;;;8.90;1.70;;;10.30;99.90;;;;;;5051711;28;20021;-51
2023/12/29 07:35:55;;;;;;;5.77;1.50;;;10.20;99.90;;;;;;5051706;28;20029;-53
2023/12/29 07:38:21;;;;;;;3.90;1.30;;;10.20;99.90;;;;;;5051464;28;20047;-54
2023/12/29 07:40:47;;;;;;;9.17;2.03;;;10.20;99.90;;;;;;5051472;28;20071;-53
2023/12/29 07:43:13;;;;;;;6.97;2.10;;;10.20;99.90;;;;;;5033573;28;20036;-55
2023/12/29 07:45:39;;;;;;;8.00;1.50;;;10.30;99.90;;;;;;5051390;28;20390;-53
2023/12/29 07:48:05;;;;;;;7.03;1.40;;;10.20;99.90;;;;;;5052043;28;20061;-50
2023/12/29 07:50:31;;;;;;;6.70;1.60;;;10.20;99.90;;;;;;5055297;28;20063;-51
2023/12/29 07:52:56;;;;;;;4.27;1.47;;;10.20;99.90;;;;;;5055242;28;20447;-54
2023/12/29 07:55:22;;;;;;;7.07;1.80;;;10.10;99.90;;;;;;5055276;28;20112;-50
2023/12/29 07:57:48;;;;;;;9.20;2.20;;;10.10;99.90;;;;;;5055169;28;20037;-52
2023/12/29 08:00:17;;;;;;;7.50;1.17;;;10.20;99.90;;;;;;5055041;28;20151;-52
2023/12/29 08:02:43;;;;;;;5.80;1.27;;;10.20;99.90;;;;;;5055020;28;20029;-52
2023/12/29 08:05:08;;;;;;;4.60;0.93;;;10.20;99.90;;;;;;5055047;28;20119;-50
2023/12/29 08:07:37;;;;;;;7.13;1.33;;;10.30;99.90;;;;;;5037302;28;20029;-50
2023/12/29 08:10:07;;;;;;;7.53;1.15;;;10.30;99.90;;;;;;5054822;28;20488;-50
2023/12/29 08:12:35;;;;;;;;;;;10.30;99.90;;;;;;5055450;28;20036;-51
2023/12/29 08:15:05;;;;;;;3.70;1.05;;;10.30;99.90;;;;;;5054888;28;20003;-51
2023/12/29 08:17:31;;;;;;;4.07;1.27;;;10.30;99.90;;;;;;5054775;28;20029;-52
2023/12/29 08:19:57;;;;;;;8.87;1.40;;;10.30;99.90;;;;;;5054783;28;20036;-52
2023/12/29 08:22:22;;;;;;;7.70;1.80;;;10.30;99.90;;;;;;5054710;28;20420;-50
2023/12/29 08:24:48;;;;;;;5.23;1.80;;;10.30;99.90;;;;;;5054725;28;20037;-51
2023/12/29 08:27:22;;;;;;;4.03;0.87;;;10.20;99.90;;;;;;5054480;28;20025;-54
2023/12/29 08:29:47;;;;;;;3.13;1.00;;;10.20;99.90;;;;;;5036690;28;20058;-55
2023/12/29 08:32:13;;;;;;;2.93;0.53;;;10.20;99.90;;;;;;5054569;28;20025;-56
2023/12/29 08:34:38;;;;;;;5.17;1.53;;;10.20;99.90;;;;;;5054579;28;20028;-52
2023/12/29 08:37:04;;;;;;;1.93;0.63;;;10.20;99.90;;;;;;5054481;28;20025;-56
2023/12/29 08:39:30;;;;;;;5.17;1.33;;;10.20;99.90;;;;;;5054126;28;20037;-52
2023/12/29 08:41:56;;;;;;;1.43;0.50;;;10.20;99.90;;;;;;5054294;28;20032;-54
2023/12/29 08:44:21;;;;;;;3.83;0.70;;;10.20;99.90;;;;;;5054218;28;20040;-54
2023/12/29 08:46:47;;;;;;;1.37;0.67;;;10.20;99.90;;;;;;5054331;28;20025;-53
2023/12/29 08:49:13;;;;;;;7.53;1.00;;;10.20;99.90;;;;;;5053814;28;20033;-53
2023/12/29 08:51:38;;;;;;;3.20;0.83;;;10.10;99.90;;;;;;5054141;28;20075;-53
2023/12/29 08:54:04;;;;;;;1.80;0.87;;;10.10;99.90;;;;;;5054148;28;20493;-55
2023/12/29 08:56:30;;;;;;;5.93;1.13;;;10.10;99.90;;;;;;5054134;28;20319;-53
2023/12/29 08:58:56;;;;;;;3.77;1.00;;;10.20;99.90;;;;;;5053323;28;20111;-55
2023/12/29 09:01:21;;;;;;;9.97;3.40;;;10.20;99.90;;;;;;5053909;28;20035;-55
2023/12/29 09:03:47;;;;;;;5.80;2.67;;;10.30;99.90;;;;;;5053980;28;20040;-52
2023/12/29 09:06:13;;;;;;;2.70;1.10;;;10.30;99.90;;;;;;5053948;28;20081;-50
2023/12/29 09:08:39;;;;;;;5.33;1.60;;;10.30;99.90;;;;;;5053582;28;20028;-52
2023/12/29 09:11:05;;;;;;;4.57;2.00;;;10.40;99.90;;;;;;5035886;28;20207;-55
2023/12/29 09:13:31;;;;;;;3.27;1.13;;;10.40;99.90;;;;;;5053744;28;20033;-53
2023/12/29 09:15:58;;;;;;;2.50;1.10;;;10.40;99.90;;;;;;5053700;28;20033;-55
2023/12/29 09:18:24;;;;;;;1.80;0.57;;;10.40;99.90;;;;;;5053554;28;20428;-55
2023/12/29 09:20:50;;;;;;;1.23;0.50;;;10.30;99.90;;;;;;5053559;28;20029;-55
2023/12/29 09:23:16;;;;;;;1.53;0.63;;;10.40;99.90;;;;;;5053449;28;20068;-51
2023/12/29 09:25:41;;;;;;;1.93;0.67;;;10.30;99.90;;;;;;5053473;28;20040;-54
2023/12/29 09:28:07;;;;;;;2.63;0.70;;;10.30;99.90;;;;;;5053250;28;20037;-54
2023/12/29 09:30:32;;;;;;;4.30;0.90;;;10.40;99.90;;;;;;5053381;28;20057;-51
2023/12/29 09:32:58;;;;;;;2.40;1.17;;;10.40;99.90;;;;;;5053317;28;20025;-53
2023/12/29 09:35:24;;;;;;;3.50;1.83;;;10.40;99.90;;;;;;5053392;28;20029;-55
2023/12/29 09:37:50;;;;;;;3.90;1.30;;;10.50;99.90;;;;;;5053284;28;20056;-51
2023/12/29 09:40:16;;;;;;;3.23;1.30;;;10.50;99.90;;;;;;5052947;28;20033;-54
2023/12/29 09:42:45;;;;;;;4.23;1.30;;;10.50;99.90;;;;;;5053083;28;20443;-51
2023/12/29 09:45:12;;;;;;;;;;;10.50;99.90;;;;;;5053686;28;20037;-54
2023/12/29 09:47:39;;;;;;;3.23;1.20;;;10.50;99.90;;;;;;5053008;28;19924;-53
2023/12/29 09:50:10;;;;;;;8.27;1.77;;;10.50;99.90;;;;;;5052948;28;20036;-54
2023/12/29 09:52:38;;;;;;;2.33;1.13;;;10.50;99.90;;;;;;5052993;28;20079;-54
2023/12/29 09:55:07;;;;;;;4.00;1.33;;;10.50;99.90;;;;;;5052936;28;20037;-52
2023/12/29 09:57:33;;;;;;;2.88;1.52;;;10.50;99.90;;;;;;5052923;28;20037;-54
2023/12/29 09:59:59;;;;;;;4.63;0.90;;;10.40;99.90;;;;;;5052649;28;20051;-55
2023/12/29 10:02:25;;;;;;;1.67;0.77;;;10.30;99.90;;;;;;5053033;28;20159;-54
2023/12/29 10:04:50;;;;;;;1.73;0.67;;;10.20;99.90;;;;;;5052741;28;20108;-55
2023/12/29 10:07:40;;;;;;;4.13;1.30;;;10.10;99.90;;;;;;5052573;28;20439;-54
2023/12/29 10:10:06;;;;;;;3.88;1.70;;;10.00;99.90;;;;;;5044084;28;20068;-51
2023/12/29 10:12:33;;;;;;;3.60;1.17;;;10.00;99.90;;;;;;5052242;28;20021;-55
2023/12/29 10:15:09;;;;;;;2.37;1.20;;;10.00;99.90;;;;;;5052521;28;20029;-55
2023/12/29 10:18:08;;;;;;;4.03;1.00;;;10.00;99.90;;;;;;5052527;28;20036;-55
2023/12/29 10:20:52;;;;;;;4.20;1.60;;;10.00;99.90;;;;;;5052497;28;20052;-50
2023/12/29 10:23:31;;;;;;;4.73;1.37;;;10.00;99.90;;;;;;5052386;28;20474;-55
2023/12/29 10:25:57;;;;;;;;;;;10.00;99.90;;;;;;5052861;28;20041;-54
2023/12/29 10:28:23;;;;;;;9.97;5.00;;;10.00;99.90;;;;;;5052025;28;19919;-54
2023/12/29 10:30:49;;;;;;;3.53;1.40;;;10.00;99.90;;;;;;5052212;28;20029;-55
2023/12/29 10:33:21;;;;;;;1.27;0.60;;;10.00;99.90;;;;;;5017812;28;20090;-55
2023/12/29 10:36:02;;;;;;;4.20;1.20;;;10.00;99.90;;;;;;5052516;28;20423;-55
2023/12/29 10:38:29;;;;;;;4.77;1.80;;;10.00;99.90;;;;;;5051989;28;20119;-54
2023/12/29 10:40:54;;;;;;;3.93;1.23;;;10.00;99.90;;;;;;5051917;28;20028;-54
2023/12/29 10:43:24;;;;;;;5.53;2.10;;;10.10;99.90;;;;;;5051978;28;20036;-55
2023/12/29 10:45:49;;;;;;;4.50;1.67;;;10.10;99.90;;;;;;5052040;28;20028;-55
2023/12/29 10:48:24;;;;;;;5.13;0.83;;;10.30;99.90;;;;;;5033915;28;20498;-51
2023/12/29 10:50:49;;;;;;;2.47;0.67;;;10.40;99.90;;;;;;5052041;28;20332;-54
2023/12/29 10:53:18;;;;;;;1.87;0.57;;;10.50;99.90;;;;;;5051750;28;20067;-52
2023/12/29 10:55:44;;;;;;;2.88;0.50;;;10.60;99.90;;;;;;5052004;28;20021;-55
2023/12/29 10:58:09;;;;;;;1.07;0.30;;;10.60;99.90;;;;;;5051644;28;20531;-54
2023/12/29 11:00:35;;;;;;;2.97;0.97;;;10.70;99.90;;;;;;5051898;28;20469;-55
2023/12/29 11:03:01;;;;;;;3.20;0.97;;;10.70;99.90;;;;;;5051777;28;20072;-52
2023/12/29 11:05:28;;;;;;;1.77;0.57;;;10.70;99.90;;;;;;5051747;28;20029;-54
2023/12/29 11:07:54;;;;;;;1.87;0.67;;;10.80;99.90;;;;;;5033801;28;20378;-53
2023/12/29 11:10:21;;;;;;;3.57;1.23;;;10.80;99.90;;;;;;5051475;28;20101;-52
2023/12/29 11:12:48;;;;;;;1.10;0.60;;;10.90;99.90;;;;;;5051631;28;20455;-54
2023/12/29 11:15:15;;;;;;;1.87;0.80;;;10.90;99.90;;;;;;5051663;28;20025;-55
2023/12/29 11:17:52;;;;;;;2.63;0.67;;;11.10;99.90;;;;;;5051588;28;20087;-54
2023/12/29 11:20:19;;;;;;;1.27;0.60;;;11.10;99.90;;;;;;5051325;28;20060;-53
2023/12/29 11:22:47;;;;;;;1.47;0.50;;;11.20;99.90;;;;;;5053633;28;20044;-55
2023/12/29 11:25:15;;;;;;;0.83;0.40;;;11.20;99.90;;;;;;5055676;28;20036;-51
2023/12/29 11:27:40;;;;;;;1.77;0.43;;;11.20;99.90;;;;;;5055580;28;20039;-52
2023/12/29 11:30:08;;;;;;;1.77;0.63;;;11.20;99.90;;;;;;5055406;28;20030;-53
2023/12/29 11:33:07;;;;;;;2.07;0.70;;;11.20;99.90;;;;;;5055571;28;20108;-54
2023/12/29 11:35:56;;;;;;;4.18;0.90;;;11.20;99.90;;;;;;5055604;28;20055;-54
2023/12/29 11:38:38;;;;;;;;;;;11.10;99.90;;;;;;5056057;28;20041;-53
2023/12/29 11:41:13;;;;;;;4.23;0.70;;;11.10;99.90;;;;;;5055390;28;19909;-54
2023/12/29 11:43:39;;;;;;;3.77;0.70;;;11.00;99.90;;;;;;5055515;28;20405;-54
2023/12/29 11:46:04;;;;;;;3.40;0.60;;;11.10;99.90;;;;;;5037639;28;20045;-54
2023/12/29 11:49:03;;;;;;;1.70;0.73;;;11.10;99.90;;;;;;5055156;28;20032;-51
2023/12/29 11:51:44;;;;;;;4.50;0.80;;;11.10;99.90;;;;;;5055154;28;20028;-55
2023/12/29 11:54:21;;;;;;;3.00;0.80;;;11.10;99.90;;;;;;5055284;28;20505;-55
2023/12/29 11:56:47;;;;;;;2.60;0.90;;;11.10;99.90;;;;;;5055321;28;20048;-55
2023/12/29 11:59:24;;;;;;;2.47;0.70;;;11.10;99.90;;;;;;5055105;28;20037;-54
2023/12/29 12:01:55;;;;;;;3.30;1.00;;;11.20;99.90;;;;;;5055070;28;20025;-55
2023/12/29 12:04:40;;;;;;;2.07;0.60;;;11.20;99.90;;;;;;5055144;28;20036;-55
2023/12/29 12:07:29;;;;;;;4.17;0.70;;;11.30;99.90;;;;;;5055048;28;20123;-55
2023/12/29 12:10:19;;;;;;;1.98;0.70;;;11.20;99.90;;;;;;5026148;28;20146;-54
2023/12/29 12:12:46;;;;;;;2.43;1.30;;;11.20;99.90;;;;;;5054790;28;20033;-55
2023/12/29 12:15:26;;;;;;;4.63;1.53;;;11.20;99.90;;;;;;5055278;28;20083;-55
2023/12/29 12:17:52;;;;;;;3.80;1.10;;;11.10;99.90;;;;;;5054788;28;20493;-54
2023/12/29 12:20:18;;;;;;;3.60;0.73;;;11.00;99.90;;;;;;5054589;28;20116;-54
2023/12/29 12:22:45;;;;;;;2.93;0.83;;;11.00;99.90;;;;;;5054698;28;20083;-54
2023/12/29 12:25:12;;;;;;;4.83;0.83;;;10.80;99.90;;;;;;5054762;28;20091;-55
2023/12/29 12:27:38;;;;;;;2.87;1.00;;;10.80;99.90;;;;;;5054554;28;20563;-53
2023/12/29 12:30:05;;;;;;;3.30;0.83;;;10.70;99.90;;;;;;5054493;28;20049;-52
2023/12/29 12:32:31;;;;;;;1.47;0.73;;;10.70;99.90;;;;;;5054849;28;20060;-54
2023/12/29 12:34:57;;;;;;;1.63;0.60;;;10.70;99.90;;;;;;5053711;28;20029;-54
2023/12/29 12:37:26;;;;;;;6.10;0.80;;;10.60;99.90;;;;;;5054456;28;20083;-55
2023/12/29 12:39:52;;;;;;;3.55;0.88;;;10.60;99.90;;;;;;5054249;28;20039;-55
2023/12/29 12:42:19;;;;;;;2.23;0.60;;;10.50;99.90;;;;;;5054199;28;20103;-51
2023/12/29 12:44:54;;;;;;;0.97;0.50;;;10.40;99.90;;;;;;5054434;28;20129;-52
2023/12/29 12:47:31;;;;;;;1.87;0.60;;;10.40;99.90;;;;;;5054295;28;20029;-55
2023/12/29 12:49:58;;;;;;;4.73;0.90;;;10.30;99.90;;;;;;5036105;28;20048;-54